createdAt,value
2023-05-20T00:00:48.000Z,0
2023-05-20T00:02:02.000Z,0
2023-05-20T00:03:16.000Z,0
2023-05-20T00:04:30.000Z,0
2023-05-20T00:05:44.000Z,0
2023-05-20T00:06:59.000Z,0
2023-05-20T00:09:27.000Z,0
2023-05-20T00:10:42.000Z,0
2023-05-20T00:11:56.000Z,0
2023-05-20T00:13:10.000Z,0
2023-05-20T00:14:25.267Z,0
2023-05-20T00:15:39.000Z,0
2023-05-20T00:16:53.000Z,0
2023-05-20T00:18:08.000Z,0
2023-05-20T00:19:22.000Z,0
2023-05-20T00:20:36.000Z,0
2023-05-20T00:21:50.000Z,0
2023-05-20T00:23:04.000Z,0
2023-05-20T00:24:19.000Z,0
2023-05-20T00:26:47.857Z,0
2023-05-20T00:28:02.000Z,0
2023-05-20T00:29:16.000Z,0
2023-05-20T00:30:30.000Z,0
2023-05-20T00:31:45.000Z,0
2023-05-20T00:32:59.000Z,0
2023-05-20T00:34:13.000Z,0
2023-05-20T00:35:28.000Z,0
2023-05-20T00:36:42.000Z,0
2023-05-20T00:37:57.000Z,0
2023-05-20T00:39:11.000Z,0
2023-05-20T00:40:24.000Z,0
2023-05-20T00:41:39.000Z,0
2023-05-20T00:42:53.000Z,0
2023-05-20T00:44:07.000Z,0
2023-05-20T00:45:22.000Z,0
2023-05-20T00:46:36.000Z,0
2023-05-20T00:47:50.000Z,0
2023-05-20T00:49:05.000Z,0
2023-05-20T00:50:19.000Z,0
2023-05-20T00:51:34.000Z,0
2023-05-20T00:54:02.000Z,0
2023-05-20T00:55:17.000Z,0
2023-05-20T00:56:31.000Z,0
2023-05-20T00:57:44.000Z,0
2023-05-20T00:58:59.000Z,0
2023-05-20T01:00:13.000Z,0
2023-05-20T01:01:27.000Z,0
2023-05-20T01:02:42.000Z,0
2023-05-20T01:03:56.000Z,0
2023-05-20T01:05:10.934Z,0
2023-05-20T01:06:25.286Z,0
2023-05-20T01:07:39.000Z,0
2023-05-20T01:08:54.000Z,0
2023-05-20T01:10:08.000Z,0
2023-05-20T01:11:22.000Z,0
2023-05-20T01:12:37.000Z,0
2023-05-20T01:13:50.000Z,0
2023-05-20T01:16:19.000Z,0
2023-05-20T01:17:33.000Z,0
2023-05-20T01:18:47.000Z,0
2023-05-20T01:20:02.000Z,0
2023-05-20T01:21:16.000Z,0
2023-05-20T01:22:30.000Z,0
2023-05-20T01:23:45.000Z,0
2023-05-20T01:24:59.000Z,0
2023-05-20T01:27:28.000Z,0
2023-05-20T01:28:42.000Z,0
2023-05-20T01:29:57.000Z,0
2023-05-20T01:31:11.000Z,0
2023-05-20T01:33:40.000Z,0
2023-05-20T01:34:54.000Z,0
2023-05-20T01:36:07.000Z,0
2023-05-20T01:37:22.274Z,0
2023-05-20T01:38:36.000Z,0
2023-05-20T01:39:50.000Z,0
2023-05-20T01:42:19.000Z,0
2023-05-20T01:46:02.000Z,0
2023-05-20T01:47:17.000Z,0
2023-05-20T01:49:45.000Z,0
2023-05-20T01:51:00.000Z,0
2023-05-20T01:52:14.000Z,0
2023-05-20T01:53:28.000Z,0
2023-05-20T01:54:42.000Z,0
2023-05-20T01:55:56.000Z,0
2023-05-20T01:57:10.000Z,0
2023-05-20T01:58:24.000Z,0
2023-05-20T01:59:38.000Z,0
2023-05-20T02:00:53.000Z,0
2023-05-20T02:02:07.000Z,0
2023-05-20T02:03:21.000Z,0
2023-05-20T02:04:36.000Z,0
2023-05-20T02:05:50.000Z,0
2023-05-20T02:07:04.000Z,0
2023-05-20T02:08:19.000Z,0
2023-05-20T02:09:33.000Z,0
2023-05-20T02:12:02.000Z,0
2023-05-20T02:13:16.000Z,0
2023-05-20T02:14:30.000Z,0
2023-05-20T02:15:44.000Z,0
2023-05-20T02:16:58.000Z,0
2023-05-20T02:18:13.000Z,0
2023-05-20T02:19:27.000Z,0
2023-05-20T02:20:41.000Z,0
2023-05-20T02:21:56.000Z,0
2023-05-20T02:23:10.000Z,0
2023-05-20T02:24:24.000Z,0
2023-05-20T02:25:39.000Z,0
2023-05-20T02:26:53.000Z,0
2023-05-20T02:29:21.000Z,0
2023-05-20T02:30:35.000Z,0
2023-05-20T02:31:49.000Z,0
2023-05-20T02:33:03.000Z,0
2023-05-20T02:34:17.000Z,1
2023-05-20T02:35:32.000Z,0
2023-05-20T02:36:46.000Z,1
2023-05-20T02:38:00.000Z,1
2023-05-20T02:39:15.000Z,0
2023-05-20T02:40:29.000Z,2
2023-05-20T02:41:42.000Z,2
2023-05-20T02:42:56.000Z,3
2023-05-20T02:44:10.000Z,2
2023-05-20T02:45:24.000Z,3
2023-05-20T02:46:39.000Z,6
2023-05-20T02:47:53.000Z,7
2023-05-20T02:49:07.658Z,5
2023-05-20T02:50:21.000Z,6
2023-05-20T02:51:35.000Z,9
2023-05-20T02:52:49.000Z,11
2023-05-20T02:54:03.000Z,13
2023-05-20T02:55:18.000Z,14
2023-05-20T02:56:31.000Z,19
2023-05-20T02:57:45.000Z,15
2023-05-20T02:58:59.000Z,18
2023-05-20T03:00:13.000Z,19
2023-05-20T03:01:27.000Z,24
2023-05-20T03:02:42.000Z,30
2023-05-20T03:03:56.000Z,40
2023-05-20T03:05:10.000Z,46
2023-05-20T03:06:25.000Z,50
2023-05-20T03:07:39.000Z,54
2023-05-20T03:08:53.000Z,64
2023-05-20T03:10:07.000Z,71
2023-05-20T03:11:22.000Z,87
2023-05-20T03:12:36.532Z,97
2023-05-20T03:13:50.000Z,104
2023-05-20T03:15:05.000Z,114
2023-05-20T03:16:18.000Z,125
2023-05-20T03:17:32.000Z,136
2023-05-20T03:18:47.000Z,158
2023-05-20T03:20:01.000Z,173
2023-05-20T03:21:15.000Z,177
2023-05-20T03:22:30.000Z,194
2023-05-20T03:23:44.000Z,208
2023-05-20T03:24:58.586Z,221
2023-05-20T03:26:12.000Z,236
2023-05-20T03:27:27.000Z,264
2023-05-20T03:28:41.000Z,290
2023-05-20T03:29:55.000Z,301
2023-05-20T03:31:10.090Z,331
2023-05-20T03:32:24.000Z,338
2023-05-20T03:33:38.000Z,354
2023-05-20T03:34:53.000Z,397
2023-05-20T03:36:07.000Z,422
2023-05-20T03:37:21.000Z,462
2023-05-20T03:38:35.000Z,522
2023-05-20T03:39:50.000Z,578
2023-05-20T03:41:03.000Z,616
2023-05-20T03:42:17.000Z,679
2023-05-20T03:43:32.000Z,686
2023-05-20T03:44:46.000Z,635
2023-05-20T03:46:00.000Z,741
2023-05-20T03:47:15.000Z,654
2023-05-20T03:48:29.000Z,540
2023-05-20T03:49:43.000Z,770
2023-05-20T03:50:57.000Z,528
2023-05-20T03:52:12.256Z,676
2023-05-20T03:54:40.000Z,480
2023-05-20T03:55:55.000Z,563
2023-05-20T03:57:09.000Z,460
2023-05-20T03:58:23.000Z,667
2023-05-20T03:59:38.000Z,853
2023-05-20T04:00:51.000Z,665
2023-05-20T04:02:05.000Z,693
2023-05-20T04:03:20.000Z,635
2023-05-20T04:05:48.000Z,639
2023-05-20T04:07:02.000Z,789
2023-05-20T04:08:17.000Z,534
2023-05-20T04:09:31.000Z,729
2023-05-20T04:10:45.000Z,613
2023-05-20T04:12:00.103Z,558
2023-05-20T04:13:14.000Z,542
2023-05-20T04:14:28.000Z,593
2023-05-20T04:16:57.000Z,667
2023-05-20T04:18:11.000Z,674
2023-05-20T04:19:24.000Z,749
2023-05-20T04:20:39.000Z,895
2023-05-20T04:21:53.000Z,749
2023-05-20T04:23:06.000Z,1001
2023-05-20T04:24:21.000Z,688
2023-05-20T04:25:35.000Z,787
2023-05-20T04:26:49.000Z,1082
2023-05-20T04:28:04.000Z,779
2023-05-20T04:29:18.000Z,1137
2023-05-20T04:30:32.000Z,1241
2023-05-20T04:31:47.000Z,1395
2023-05-20T04:33:00.000Z,1009
2023-05-20T04:34:13.000Z,1108
2023-05-20T04:35:28.000Z,953
2023-05-20T04:36:42.000Z,816
2023-05-20T04:37:56.636Z,881
2023-05-20T04:40:25.000Z,831
2023-05-20T04:41:39.000Z,711
2023-05-20T04:42:53.000Z,624
2023-05-20T04:44:08.000Z,586
2023-05-20T04:45:22.000Z,596
2023-05-20T04:46:36.000Z,589
2023-05-20T04:47:51.000Z,634
2023-05-20T04:49:05.000Z,645
2023-05-20T04:50:19.000Z,794
2023-05-20T04:51:33.000Z,673
2023-05-20T04:52:48.000Z,734
2023-05-20T04:54:01.000Z,773
2023-05-20T04:55:15.000Z,713
2023-05-20T04:56:30.000Z,842
2023-05-20T04:58:58.000Z,1453
2023-05-20T05:00:13.000Z,1346
2023-05-20T05:01:27.000Z,1097
2023-05-20T05:02:41.000Z,1193
2023-05-20T05:03:56.000Z,1400
2023-05-20T05:05:10.000Z,1193
2023-05-20T05:06:24.000Z,1120
2023-05-20T05:07:38.000Z,1331
2023-05-20T05:08:53.000Z,1858
2023-05-20T05:10:07.000Z,1911
2023-05-20T05:11:21.000Z,1815
2023-05-20T05:12:36.000Z,3455
2023-05-20T05:13:50.000Z,3042
2023-05-20T05:15:04.000Z,2408
2023-05-20T05:16:19.000Z,2266
2023-05-20T05:17:33.000Z,3253
2023-05-20T05:18:47.000Z,1881
2023-05-20T05:20:02.000Z,2025
2023-05-20T05:21:16.000Z,1954
2023-05-20T05:22:30.000Z,2134
2023-05-20T05:23:44.000Z,1935
2023-05-20T05:24:59.000Z,2106
2023-05-20T05:26:13.000Z,1957
2023-05-20T05:27:27.000Z,2248
2023-05-20T05:28:42.000Z,2064
2023-05-20T05:29:56.000Z,2279
2023-05-20T05:31:10.000Z,3007
2023-05-20T05:32:24.000Z,1770
2023-05-20T05:33:38.000Z,3245
2023-05-20T05:34:52.000Z,3122
2023-05-20T05:36:07.000Z,2510
2023-05-20T05:37:21.000Z,3706
2023-05-20T05:38:35.000Z,2070
2023-05-20T05:39:49.000Z,3051
2023-05-20T05:41:04.185Z,2322
2023-05-20T05:42:18.000Z,2334
2023-05-20T05:43:32.000Z,2839
2023-05-20T05:44:47.000Z,2905
2023-05-20T05:46:01.396Z,3725
2023-05-20T05:47:15.000Z,2743
2023-05-20T05:49:43.000Z,4251
2023-05-20T05:50:57.000Z,6590
2023-05-20T05:52:11.000Z,4480
2023-05-20T05:53:26.000Z,4882
2023-05-20T05:54:40.000Z,2343
2023-05-20T05:55:54.000Z,3284
2023-05-20T05:57:09.000Z,4727
2023-05-20T05:58:23.434Z,2817
2023-05-20T05:59:37.000Z,4713
2023-05-20T06:00:52.000Z,6395
2023-05-20T06:02:06.000Z,9031
2023-05-20T06:03:20.000Z,10354
2023-05-20T06:04:33.000Z,9265
2023-05-20T06:05:48.000Z,2510
2023-05-20T06:07:02.000Z,18198
2023-05-20T06:08:16.000Z,11775
2023-05-20T06:09:31.000Z,2476
2023-05-20T06:10:45.000Z,10734
2023-05-20T06:11:59.000Z,6351
2023-05-20T06:13:14.000Z,3134
2023-05-20T06:14:28.000Z,8288
2023-05-20T06:15:42.000Z,3149
2023-05-20T06:16:56.000Z,7819
2023-05-20T06:18:11.280Z,5959
2023-05-20T06:19:25.000Z,3528
2023-05-20T06:20:39.000Z,4599
2023-05-20T06:21:54.000Z,4398
2023-05-20T06:23:08.000Z,4270
2023-05-20T06:24:22.000Z,3951
2023-05-20T06:25:36.000Z,3685
2023-05-20T06:26:50.000Z,4932
2023-05-20T06:28:04.000Z,3157
2023-05-20T06:29:19.000Z,3077
2023-05-20T06:30:33.000Z,5177
2023-05-20T06:31:47.000Z,3340
2023-05-20T06:33:01.000Z,3770
2023-05-20T06:34:16.000Z,4247
2023-05-20T06:35:30.000Z,4085
2023-05-20T06:36:44.000Z,4588
2023-05-20T06:37:59.000Z,3691
2023-05-20T06:39:13.000Z,4559
2023-05-20T06:40:27.000Z,5247
2023-05-20T06:41:42.000Z,4524
2023-05-20T06:42:56.000Z,4562
2023-05-20T06:44:09.000Z,4500
2023-05-20T06:45:23.000Z,4013
2023-05-20T06:46:38.000Z,4894
2023-05-20T06:47:52.584Z,4685
2023-05-20T06:49:06.000Z,3604
2023-05-20T06:50:21.181Z,3277
2023-05-20T06:51:35.000Z,2676
2023-05-20T06:52:49.000Z,2033
2023-05-20T06:54:04.000Z,1853
2023-05-20T06:55:18.000Z,2374
2023-05-20T06:56:32.685Z,1925
2023-05-20T06:57:46.985Z,3301
2023-05-20T06:59:01.000Z,2746
2023-05-20T07:00:15.590Z,3841
2023-05-20T07:01:28.000Z,2054
2023-05-20T07:02:43.000Z,2902
2023-05-20T07:03:57.000Z,3407
2023-05-20T07:05:11.834Z,3118
2023-05-20T07:06:26.000Z,2912
2023-05-20T07:07:40.000Z,3436
2023-05-20T07:08:54.000Z,2929
2023-05-20T07:10:09.000Z,3439
2023-05-20T07:11:23.332Z,2895
2023-05-20T07:12:37.000Z,3379
2023-05-20T07:13:51.000Z,3067
2023-05-20T07:15:06.229Z,3157
2023-05-20T07:16:20.532Z,3805
2023-05-20T07:17:33.000Z,5621
2023-05-20T07:18:48.000Z,4754
2023-05-20T07:20:02.000Z,4880
2023-05-20T07:21:16.000Z,3326
2023-05-20T07:22:31.000Z,2923
2023-05-20T07:23:45.000Z,2747
2023-05-20T07:24:59.688Z,3498
2023-05-20T07:26:13.000Z,4516
2023-05-20T07:27:28.279Z,3544
2023-05-20T07:28:42.000Z,3642
2023-05-20T07:29:56.000Z,2982
2023-05-20T07:31:11.000Z,2610
2023-05-20T07:32:25.000Z,3657
2023-05-20T07:33:39.000Z,4852
2023-05-20T07:34:54.000Z,4764
2023-05-20T07:36:07.000Z,6377
2023-05-20T07:37:21.000Z,5209
2023-05-20T07:38:36.000Z,5500
2023-05-20T07:39:50.000Z,5366
2023-05-20T07:42:18.000Z,2842
2023-05-20T07:43:33.000Z,4899
2023-05-20T07:44:47.533Z,4190
2023-05-20T07:46:01.837Z,5005
2023-05-20T07:47:16.000Z,5235
2023-05-20T07:48:30.422Z,2611
2023-05-20T07:49:44.727Z,8278
2023-05-20T07:50:59.023Z,15267
2023-05-20T07:52:13.328Z,8891
2023-05-20T07:53:27.627Z,5064
2023-05-20T07:54:41.000Z,10700
2023-05-20T07:55:56.000Z,6004
2023-05-20T07:57:10.000Z,4247
2023-05-20T07:58:24.000Z,5331
2023-05-20T07:59:39.000Z,3891
2023-05-20T08:00:53.000Z,2514
2023-05-20T08:02:07.000Z,2716
2023-05-20T08:03:22.000Z,2706
2023-05-20T08:04:36.000Z,2193
2023-05-20T08:05:50.000Z,2221
2023-05-20T08:08:19.000Z,4345
2023-05-20T08:09:33.000Z,3708
2023-05-20T08:10:47.000Z,2161
2023-05-20T08:12:02.000Z,3317
2023-05-20T08:13:16.000Z,3532
2023-05-20T08:14:30.856Z,4415
2023-05-20T08:15:45.000Z,3314
2023-05-20T08:16:58.000Z,3574
2023-05-20T08:18:12.805Z,6916
2023-05-20T08:19:27.000Z,4430
2023-05-20T08:20:41.407Z,3918
2023-05-20T08:21:55.000Z,7644
2023-05-20T08:23:10.000Z,5901
2023-05-20T08:24:24.000Z,3626
2023-05-20T08:25:38.000Z,4801
2023-05-20T08:26:52.000Z,8517
2023-05-20T08:28:07.000Z,7480
2023-05-20T08:29:21.000Z,4773
2023-05-20T08:30:35.000Z,5253
2023-05-20T08:31:50.000Z,5080
2023-05-20T08:33:04.000Z,3982
2023-05-20T08:34:18.000Z,3961
2023-05-20T08:35:32.000Z,4519
2023-05-20T08:36:46.344Z,5770
2023-05-20T08:38:00.000Z,4252
2023-05-20T08:39:14.000Z,5070
2023-05-20T08:40:29.254Z,6032
2023-05-20T08:41:43.000Z,4341
2023-05-20T08:42:57.000Z,3146
2023-05-20T08:44:12.000Z,2784
2023-05-20T08:45:26.000Z,2457
2023-05-20T08:46:40.745Z,2794
2023-05-20T08:47:55.053Z,3011
2023-05-20T08:49:09.348Z,3406
2023-05-20T08:50:23.000Z,3376
2023-05-20T08:51:37.000Z,3229
2023-05-20T08:52:51.309Z,3293
2023-05-20T08:54:05.000Z,4617
2023-05-20T08:55:19.000Z,5353
2023-05-20T08:56:34.000Z,6141
2023-05-20T08:57:48.000Z,6245
2023-05-20T08:59:02.000Z,6591
2023-05-20T09:00:17.000Z,6247
2023-05-20T09:01:31.000Z,13783
2023-05-20T09:02:45.711Z,6413
2023-05-20T09:04:00.000Z,10830
2023-05-20T09:05:14.000Z,8335
2023-05-20T09:06:28.000Z,6143
2023-05-20T09:07:42.000Z,5866
2023-05-20T09:08:57.000Z,8412
2023-05-20T09:10:11.000Z,9564
2023-05-20T09:11:24.000Z,8146
2023-05-20T09:12:39.000Z,11569
2023-05-20T09:13:53.000Z,13832
2023-05-20T09:15:07.000Z,12792
2023-05-20T09:16:22.058Z,11328
2023-05-20T09:17:36.000Z,10128
2023-05-20T09:18:50.000Z,11556
2023-05-20T09:20:04.000Z,12453
2023-05-20T09:21:19.000Z,11023
2023-05-20T09:22:33.000Z,12782
2023-05-20T09:23:47.000Z,11519
2023-05-20T09:25:02.000Z,11090
2023-05-20T09:26:16.000Z,11677
2023-05-20T09:27:30.764Z,7917
2023-05-20T09:28:45.050Z,6710
2023-05-20T09:29:59.000Z,5574
2023-05-20T09:31:13.000Z,12140
2023-05-20T09:32:27.000Z,7215
2023-05-20T09:33:41.000Z,10786
2023-05-20T09:34:55.000Z,10868
2023-05-20T09:36:09.000Z,6376
2023-05-20T09:37:24.000Z,10100
2023-05-20T09:38:38.000Z,8769
2023-05-20T09:39:52.000Z,6498
2023-05-20T09:41:07.000Z,9048
2023-05-20T09:42:21.000Z,6974
2023-05-20T09:43:35.000Z,6417
2023-05-20T09:44:50.000Z,9568
2023-05-20T09:46:04.000Z,9190
2023-05-20T09:47:18.000Z,8989
2023-05-20T09:48:32.000Z,8738
2023-05-20T09:49:47.000Z,9583
2023-05-20T09:51:00.000Z,7698
2023-05-20T09:52:14.000Z,8673
2023-05-20T09:53:29.000Z,8220
2023-05-20T09:54:43.000Z,8568
2023-05-20T09:55:57.000Z,8931
2023-05-20T09:57:12.000Z,8182
2023-05-20T09:58:26.000Z,6250
2023-05-20T09:59:40.000Z,9913
2023-05-20T10:00:54.000Z,11078
2023-05-20T10:02:09.000Z,8625
2023-05-20T10:03:23.000Z,8459
2023-05-20T10:04:37.000Z,6243
2023-05-20T10:05:52.000Z,10069
2023-05-20T10:07:05.000Z,7497
2023-05-20T10:08:19.000Z,7475
2023-05-20T10:09:34.101Z,7736
2023-05-20T10:10:48.000Z,8569
2023-05-20T10:12:02.000Z,7711
2023-05-20T10:13:17.000Z,6722
2023-05-20T10:14:31.000Z,6938
2023-05-20T10:15:45.000Z,6750
2023-05-20T10:16:59.000Z,6776
2023-05-20T10:18:14.000Z,6679
2023-05-20T10:19:28.000Z,6879
2023-05-20T10:20:42.000Z,6868
2023-05-20T10:21:57.101Z,7405
2023-05-20T10:23:10.000Z,6892
2023-05-20T10:24:24.000Z,6855
2023-05-20T10:25:39.000Z,6159
2023-05-20T10:26:53.000Z,6205
2023-05-20T10:28:07.000Z,6281
2023-05-20T10:29:21.000Z,6293
2023-05-20T10:30:36.000Z,6762
2023-05-20T10:31:50.000Z,6717
2023-05-20T10:33:04.000Z,6060
2023-05-20T10:34:19.000Z,5806
2023-05-20T10:35:33.000Z,6001
2023-05-20T10:36:47.000Z,5603
2023-05-20T10:38:02.055Z,5779
2023-05-20T10:39:16.000Z,5892
2023-05-20T10:40:30.000Z,5867
2023-05-20T10:41:44.000Z,5523
2023-05-20T10:44:13.000Z,5598
2023-05-20T10:46:41.000Z,5537
2023-05-20T10:47:55.000Z,6284
2023-05-20T10:49:09.000Z,5874
2023-05-20T10:51:38.000Z,5290
2023-05-20T10:52:52.000Z,5334
2023-05-20T10:54:07.000Z,5117
2023-05-20T10:55:21.000Z,4563
2023-05-20T10:56:35.753Z,4444
2023-05-20T10:57:50.000Z,6279
2023-05-20T10:59:04.000Z,5084
2023-05-20T11:00:17.000Z,6341
2023-05-20T11:01:32.000Z,5357
2023-05-20T11:02:46.000Z,5216
2023-05-20T11:04:00.000Z,5404
2023-05-20T11:05:14.902Z,5378
2023-05-20T11:06:29.000Z,5716
2023-05-20T11:07:43.000Z,6012
2023-05-20T11:08:57.790Z,5318
2023-05-20T11:10:12.000Z,4947
2023-05-20T11:11:26.000Z,5026
2023-05-20T11:12:40.000Z,4844
2023-05-20T11:13:55.000Z,4742
2023-05-20T11:15:09.000Z,4813
2023-05-20T11:16:23.000Z,4483
2023-05-20T11:17:36.000Z,4272
2023-05-20T11:20:05.000Z,5653
2023-05-20T11:21:19.000Z,5395
2023-05-20T11:23:48.486Z,5308
2023-05-20T11:25:02.000Z,5782
2023-05-20T11:26:17.000Z,4463
2023-05-20T11:27:30.000Z,4498
2023-05-20T11:28:44.000Z,4785
2023-05-20T11:29:59.000Z,5413
2023-05-20T11:31:13.000Z,4834
2023-05-20T11:32:27.000Z,4644
2023-05-20T11:36:10.000Z,4038
2023-05-20T11:37:24.000Z,3543
2023-05-20T11:38:39.135Z,4650
2023-05-20T11:39:53.000Z,4527
2023-05-20T11:42:21.000Z,4313
2023-05-20T11:43:35.000Z,3479
2023-05-20T11:44:48.000Z,4377
2023-05-20T11:46:02.000Z,5355
2023-05-20T11:47:16.000Z,4471
2023-05-20T11:48:30.000Z,4296
2023-05-20T11:50:59.000Z,4520
2023-05-20T11:52:13.000Z,3981
2023-05-20T11:53:27.000Z,4145
2023-05-20T11:54:42.000Z,3854
2023-05-20T11:57:10.824Z,3661
2023-05-20T11:58:25.000Z,3888
2023-05-20T11:59:39.000Z,3697
2023-05-20T12:00:53.722Z,3522
2023-05-20T12:02:07.000Z,3168
2023-05-20T12:03:20.000Z,3967
2023-05-20T12:04:34.000Z,4163
2023-05-20T12:05:49.000Z,3805
2023-05-20T12:08:17.000Z,3983
2023-05-20T12:09:31.000Z,3717
2023-05-20T12:10:46.000Z,3572
2023-05-20T12:12:00.540Z,3478
2023-05-20T12:13:14.843Z,3373
2023-05-20T12:14:29.000Z,3355
2023-05-20T12:15:43.000Z,3232
2023-05-20T12:16:57.000Z,3531
2023-05-20T12:18:12.000Z,3611
2023-05-20T12:19:26.338Z,3587
2023-05-20T12:20:40.000Z,3860
2023-05-20T12:21:53.000Z,3473
2023-05-20T12:23:08.000Z,3410
2023-05-20T12:24:22.000Z,3673
2023-05-20T12:25:36.892Z,3430
2023-05-20T12:28:05.000Z,3338
2023-05-20T12:29:19.000Z,3335
2023-05-20T12:30:34.000Z,3275
2023-05-20T12:31:48.000Z,3217
2023-05-20T12:33:02.000Z,3207
2023-05-20T12:34:16.000Z,3216
2023-05-20T12:35:30.000Z,3194
2023-05-20T12:36:43.711Z,3129
2023-05-20T12:37:58.000Z,3202
2023-05-20T12:39:12.000Z,3211
2023-05-20T12:40:26.599Z,3126
2023-05-20T12:41:40.000Z,3089
2023-05-20T12:42:55.000Z,3084
2023-05-20T12:44:09.000Z,3041
2023-05-20T12:45:23.000Z,3066
2023-05-20T12:46:37.164Z,3072
2023-05-20T12:47:51.475Z,2913
2023-05-20T12:49:05.767Z,3445
2023-05-20T12:50:20.076Z,3068
2023-05-20T12:51:33.000Z,2984
2023-05-20T12:52:47.000Z,3017
2023-05-20T12:54:02.000Z,2965
2023-05-20T12:55:16.000Z,2955
2023-05-20T12:56:30.000Z,2916
2023-05-20T12:57:44.000Z,2933
2023-05-20T12:58:59.000Z,2921
2023-05-20T13:00:13.000Z,2919
2023-05-20T13:01:27.000Z,2975
2023-05-20T13:02:42.000Z,2967
2023-05-20T13:03:56.000Z,2953
2023-05-20T13:05:10.000Z,2944
2023-05-20T13:06:25.000Z,2936
2023-05-20T13:07:39.320Z,2942
2023-05-20T13:08:53.000Z,2937
2023-05-20T13:10:06.000Z,2949
2023-05-20T13:11:21.000Z,2920
2023-05-20T13:12:35.000Z,2942
2023-05-20T13:13:49.871Z,2957
2023-05-20T13:15:04.000Z,2986
2023-05-20T13:16:18.000Z,2933
2023-05-20T13:17:32.000Z,2887
2023-05-20T13:18:47.000Z,2902
2023-05-20T13:20:01.000Z,2856
2023-05-20T13:21:15.675Z,2855
2023-05-20T13:22:29.000Z,2760
2023-05-20T13:23:44.000Z,2669
2023-05-20T13:24:58.000Z,2559
2023-05-20T13:26:11.000Z,2538
2023-05-20T13:27:26.000Z,2619
2023-05-20T13:28:40.000Z,2704
2023-05-20T13:29:54.000Z,2791
2023-05-20T13:31:09.000Z,2866
2023-05-20T13:32:23.000Z,2925
2023-05-20T13:33:37.000Z,3015
2023-05-20T13:34:52.000Z,3101
2023-05-20T13:36:06.330Z,3170
2023-05-20T13:37:20.629Z,3246
2023-05-20T13:38:34.914Z,3266
2023-05-20T13:39:49.000Z,3293
2023-05-20T13:41:03.000Z,3295
2023-05-20T13:42:16.000Z,3271
2023-05-20T13:44:45.000Z,3194
2023-05-20T13:45:59.771Z,3150
2023-05-20T13:47:14.000Z,3113
2023-05-20T13:48:28.000Z,3088
2023-05-20T13:49:42.000Z,3016
2023-05-20T13:50:56.000Z,3004
2023-05-20T13:52:11.000Z,3002
2023-05-20T13:53:25.000Z,2955
2023-05-20T13:54:39.000Z,2918
2023-05-20T13:55:54.000Z,2862
2023-05-20T13:57:08.000Z,2890
2023-05-20T13:58:22.000Z,2855
2023-05-20T13:59:37.000Z,2782
2023-05-20T14:00:51.000Z,2735
2023-05-20T14:02:05.000Z,2732
2023-05-20T14:03:19.960Z,2636
2023-05-20T14:04:34.000Z,2713
2023-05-20T14:05:48.000Z,2760
2023-05-20T14:07:02.877Z,2703
2023-05-20T14:08:17.000Z,2632
2023-05-20T14:10:45.000Z,2669
2023-05-20T14:12:00.000Z,2600
2023-05-20T14:13:14.000Z,2663
2023-05-20T14:15:42.000Z,2620
2023-05-20T14:16:57.000Z,2341
2023-05-20T14:18:11.000Z,2690
2023-05-20T14:19:25.000Z,2501
2023-05-20T14:21:54.000Z,2911
2023-05-20T14:23:08.000Z,2962
2023-05-20T14:24:23.000Z,2851
2023-05-20T14:25:37.000Z,2742
2023-05-20T14:26:50.000Z,2882
2023-05-20T14:28:04.095Z,2966
2023-05-20T14:29:18.000Z,3024
2023-05-20T14:30:32.000Z,3038
2023-05-20T14:31:46.000Z,3036
2023-05-20T14:33:01.000Z,3070
2023-05-20T14:34:15.000Z,3123
2023-05-20T14:35:29.000Z,3168
2023-05-20T14:36:44.000Z,3185
2023-05-20T14:37:58.000Z,3225
2023-05-20T14:39:12.000Z,3243
2023-05-20T14:40:27.000Z,3237
2023-05-20T14:41:40.000Z,3231
2023-05-20T14:42:53.000Z,3221
2023-05-20T14:44:08.109Z,3220
2023-05-20T14:45:22.000Z,3195
2023-05-20T14:46:36.000Z,3162
2023-05-20T14:47:51.000Z,3106
2023-05-20T14:49:05.000Z,3076
2023-05-20T14:50:19.000Z,3060
2023-05-20T14:51:33.000Z,3070
2023-05-20T14:52:48.000Z,3078
2023-05-20T14:55:16.000Z,3089
2023-05-20T14:56:31.000Z,3094
2023-05-20T14:57:45.000Z,3099
2023-05-20T14:58:59.000Z,3095
2023-05-20T15:00:13.000Z,3085
2023-05-20T15:01:27.000Z,3051
2023-05-20T15:02:41.000Z,3023
2023-05-20T15:03:55.000Z,2994
2023-05-20T15:05:10.260Z,2992
2023-05-20T15:06:24.555Z,2932
2023-05-20T15:07:38.000Z,2892
2023-05-20T15:08:53.000Z,2879
2023-05-20T15:10:07.000Z,2860
2023-05-20T15:11:21.000Z,2869
2023-05-20T15:12:36.000Z,2897
2023-05-20T15:13:50.000Z,2852
2023-05-20T15:15:04.000Z,2888
2023-05-20T15:16:18.000Z,2863
2023-05-20T15:17:32.000Z,2849
2023-05-20T15:18:46.000Z,2838
2023-05-20T15:20:00.914Z,2820
2023-05-20T15:21:15.000Z,2876
2023-05-20T15:22:29.000Z,2807
2023-05-20T15:23:43.000Z,2764
2023-05-20T15:24:58.000Z,2691
2023-05-20T15:26:11.000Z,2672
2023-05-20T15:27:25.000Z,2690
2023-05-20T15:28:40.000Z,2648
2023-05-20T15:29:54.000Z,2653
2023-05-20T15:31:08.000Z,2660
2023-05-20T15:32:22.000Z,2652
2023-05-20T15:33:37.000Z,2695
2023-05-20T15:34:51.000Z,2628
2023-05-20T15:36:05.000Z,2563
2023-05-20T15:37:20.164Z,2592
2023-05-20T15:38:34.000Z,2513
2023-05-20T15:39:48.000Z,2335
2023-05-20T15:41:03.000Z,2650
2023-05-20T15:42:17.000Z,2638
2023-05-20T15:43:30.000Z,2694
2023-05-20T15:44:45.000Z,2897
2023-05-20T15:45:59.000Z,2980
2023-05-20T15:47:13.000Z,2932
2023-05-20T15:48:27.000Z,2931
2023-05-20T15:49:42.000Z,2874
2023-05-20T15:50:56.000Z,2825
2023-05-20T15:52:10.000Z,2817
2023-05-20T15:53:25.000Z,2876
2023-05-20T15:54:39.000Z,2889
2023-05-20T15:55:53.000Z,2902
2023-05-20T15:57:08.000Z,2897
2023-05-20T15:58:22.000Z,2965
2023-05-20T15:59:35.000Z,3019
2023-05-20T16:00:49.000Z,3052
2023-05-20T16:02:04.000Z,3051
2023-05-20T16:03:18.000Z,2962
2023-05-20T16:04:32.000Z,2947
2023-05-20T16:05:47.000Z,2907
2023-05-20T16:07:01.000Z,2916
2023-05-20T16:08:15.000Z,2877
2023-05-20T16:09:30.000Z,2836
2023-05-20T16:10:44.000Z,2841
2023-05-20T16:11:58.000Z,2811
2023-05-20T16:13:12.978Z,2779
2023-05-20T16:14:27.000Z,2710
2023-05-20T16:15:41.000Z,2702
2023-05-20T16:16:54.000Z,2694
2023-05-20T16:18:09.000Z,2674
2023-05-20T16:19:23.000Z,2672
2023-05-20T16:20:37.000Z,2670
2023-05-20T16:21:52.000Z,2616
2023-05-20T16:23:06.000Z,2636
2023-05-20T16:24:20.000Z,2686
2023-05-20T16:25:35.000Z,2683
2023-05-20T16:26:49.000Z,2725
2023-05-20T16:29:17.000Z,2852
2023-05-20T16:30:32.000Z,2907
2023-05-20T16:31:46.000Z,2918
2023-05-20T16:33:00.000Z,2846
2023-05-20T16:34:15.248Z,2812
2023-05-20T16:35:29.545Z,2838
2023-05-20T16:36:43.000Z,2840
2023-05-20T16:37:58.000Z,2842
2023-05-20T16:40:26.000Z,2790
2023-05-20T16:41:41.000Z,2798
2023-05-20T16:42:55.000Z,2853
2023-05-20T16:44:09.000Z,2858
2023-05-20T16:45:23.000Z,2817
2023-05-20T16:46:38.000Z,2752
2023-05-20T16:47:52.000Z,2658
2023-05-20T16:49:05.000Z,2602
2023-05-20T16:50:20.000Z,2535
2023-05-20T16:51:34.000Z,2491
2023-05-20T16:52:48.000Z,2425
2023-05-20T16:54:03.000Z,2370
2023-05-20T16:55:17.000Z,2295
2023-05-20T16:56:31.000Z,2247
2023-05-20T16:57:45.000Z,2289
2023-05-20T16:59:00.000Z,2262
2023-05-20T17:00:14.000Z,2244
2023-05-20T17:01:28.000Z,2134
2023-05-20T17:02:43.000Z,2051
2023-05-20T17:03:57.000Z,1986
2023-05-20T17:05:11.000Z,1912
2023-05-20T17:06:26.000Z,1913
2023-05-20T17:07:39.000Z,1916
2023-05-20T17:08:53.000Z,1873
2023-05-20T17:10:08.053Z,1807
2023-05-20T17:11:22.000Z,1721
2023-05-20T17:12:36.000Z,1758
2023-05-20T17:13:50.000Z,1725
2023-05-20T17:15:05.000Z,1689
2023-05-20T17:16:19.000Z,1679
2023-05-20T17:17:33.000Z,1688
2023-05-20T17:18:48.000Z,1708
2023-05-20T17:20:02.000Z,1701
2023-05-20T17:21:16.000Z,1692
2023-05-20T17:22:31.000Z,1667
2023-05-20T17:23:45.000Z,1647
2023-05-20T17:24:58.000Z,1622
2023-05-20T17:26:13.000Z,1605
2023-05-20T17:27:27.000Z,1571
2023-05-20T17:28:41.000Z,1555
2023-05-20T17:29:55.000Z,1552
2023-05-20T17:31:10.207Z,1534
2023-05-20T17:32:24.000Z,1501
2023-05-20T17:33:38.000Z,1483
2023-05-20T17:34:53.000Z,1468